Time;durP1;ratioP1;P1;durP2;ratioP2;P2;SDS_P1;SDS_P2;PMS_P1;PMS_P2;Temp;Humidity;BMP_temperature;BMP_pressure;BME280_temperature;BME280_humidity;BME280_pressure;Samples;Min_cycle;Max_cycle;Signal;HPM_P1;HPM_P2
2023/12/24 00:01:45;;;;;;;12.60;1.80;;;8.90;99.90;;;;;;4253343;27;20058;-79
2023/12/24 00:03:48;;;;;;;13.00;3.00;;;9.20;99.90;;;;;;4251413;27;20035;-79
2023/12/24 00:05:48;;;;;;;8.65;1.38;;;8.90;99.90;;;;;;4249381;27;20035;-79
2023/12/24 00:07:49;;;;;;;12.63;1.98;;;9.20;99.90;;;;;;4249458;27;20144;-79
2023/12/24 00:09:50;;;;;;;12.57;2.75;;;9.10;99.90;;;;;;4249493;27;20047;-80
2023/12/24 00:11:50;;;;;;;10.05;2.13;;;9.00;99.90;;;;;;4249497;27;20039;-79
2023/12/24 00:13:51;;;;;;;11.20;2.08;;;8.80;99.90;;;;;;4249329;27;20075;-80
2023/12/24 00:15:52;;;;;;;9.50;1.95;;;9.00;99.90;;;;;;4248745;27;20043;-79
2023/12/24 00:17:53;;;;;;;15.95;1.92;;;9.00;99.90;;;;;;4237909;27;20043;-79
2023/12/24 00:19:53;;;;;;;12.18;2.17;;;9.00;99.90;;;;;;4248842;27;20042;-80
2023/12/24 00:21:54;;;;;;;8.52;2.25;;;9.00;99.90;;;;;;4248692;27;20031;-80
2023/12/24 00:23:55;;;;;;;15.93;2.10;;;9.10;99.90;;;;;;4249072;27;20100;-80
2023/12/24 00:25:55;;;;;;;9.60;2.17;;;9.00;99.90;;;;;;4249064;27;20054;-79
2023/12/24 00:27:58;;;;;;;7.38;1.52;;;9.00;99.90;;;;;;4230844;28;20043;-79
2023/12/24 00:29:59;;;;;;;5.78;1.55;;;9.10;99.90;;;;;;4248729;27;20073;-79
2023/12/24 00:31:59;;;;;;;15.93;3.03;;;9.00;99.90;;;;;;4249017;27;20398;-79
2023/12/24 00:34:00;;;;;;;12.00;1.80;;;9.00;99.90;;;;;;4244356;27;20050;-79
2023/12/24 00:36:01;;;;;;;12.18;1.73;;;9.00;99.90;;;;;;4248820;27;20399;-80
2023/12/24 00:38:02;;;;;;;9.50;1.80;;;9.10;99.90;;;;;;4248311;27;20043;-79
2023/12/24 00:40:02;;;;;;;16.38;2.63;;;9.00;99.90;;;;;;4248194;27;20064;-79
2023/12/24 00:42:03;;;;;;;12.23;1.48;;;9.10;99.90;;;;;;4230483;28;20513;-79
2023/12/24 00:44:04;;;;;;;14.63;2.13;;;9.00;99.90;;;;;;4230524;28;20039;-79
2023/12/24 00:46:05;;;;;;;9.32;2.00;;;9.00;99.90;;;;;;4248577;27;20077;-79
2023/12/24 00:48:06;;;;;;;11.77;1.98;;;9.00;99.90;;;;;;4237474;27;20092;-79
2023/12/24 00:50:08;;;;;;;10.25;2.03;;;9.00;99.90;;;;;;4258444;27;20092;-79
2023/12/24 00:52:08;;;;;;;7.78;1.85;;;9.00;99.90;;;;;;4236052;27;20042;-79
2023/12/24 00:54:10;;;;;;;11.07;2.03;;;9.00;99.90;;;;;;4249644;27;20114;-79
2023/12/24 00:56:11;;;;;;;5.80;1.35;;;9.00;99.90;;;;;;4247732;27;20039;-80
2023/12/24 00:58:12;;;;;;;10.65;2.00;;;8.80;99.90;;;;;;4231549;28;20122;-79
2023/12/24 01:00:13;;;;;;;7.35;2.15;;;8.90;99.90;;;;;;4232666;27;20047;-79
2023/12/24 01:02:14;;;;;;;7.07;1.25;;;8.90;99.90;;;;;;4244594;27;20492;-79
2023/12/24 01:04:14;;;;;;;7.40;1.77;;;8.90;99.90;;;;;;4231146;28;20176;-80
2023/12/24 01:06:16;;;;;;;9.43;2.35;;;8.90;99.90;;;;;;4231413;28;20050;-79
2023/12/24 01:08:17;;;;;;;13.82;2.17;;;8.90;99.90;;;;;;4242911;27;20072;-79
2023/12/24 01:10:19;;;;;;;9.90;2.05;;;8.90;99.90;;;;;;4243363;27;20043;-79
2023/12/24 01:12:19;;;;;;;8.82;2.33;;;9.30;99.90;;;;;;4240249;27;20054;-79
2023/12/24 01:14:20;;;;;;;12.25;2.05;;;;;;;;;;4233749;28;20039;-79
2023/12/24 01:16:21;;;;;;;5.10;1.58;;;9.10;99.90;;;;;;4236583;28;20387;-79
2023/12/24 01:18:22;;;;;;;7.97;1.42;;;9.20;99.90;;;;;;4248216;27;20035;-79
2023/12/24 01:20:22;;;;;;;9.70;1.45;;;9.00;99.90;;;;;;4245036;27;20040;-79
2023/12/24 01:22:23;;;;;;;13.50;1.73;;;9.40;99.90;;;;;;4238885;28;20099;-79
2023/12/24 01:24:24;;;;;;;6.60;2.63;;;9.40;99.90;;;;;;4247741;27;20046;-79
2023/12/24 01:26:25;;;;;;;8.15;1.20;;;9.30;99.90;;;;;;4248376;28;20380;-79
2023/12/24 01:28:26;;;;;;;6.07;1.95;;;8.80;99.90;;;;;;4247650;27;20114;-79
2023/12/24 01:30:26;;;;;;;14.27;1.88;;;9.00;99.90;;;;;;4248254;28;20050;-79
2023/12/24 01:32:27;;;;;;;8.98;2.58;;;8.90;99.90;;;;;;4240569;28;20040;-79
2023/12/24 01:34:28;;;;;;;18.73;1.67;;;8.80;99.90;;;;;;4231272;28;20046;-79
2023/12/24 01:36:28;;;;;;;9.90;1.90;;;9.10;99.90;;;;;;4231148;28;20051;-79
2023/12/24 01:38:30;;;;;;;7.38;1.17;;;9.00;99.90;;;;;;4231176;28;20081;-79
2023/12/24 01:40:31;;;;;;;8.38;1.17;;;9.00;99.90;;;;;;4230929;28;20088;-79
2023/12/24 01:42:32;;;;;;;5.45;1.77;;;;;;;;;;4245306;28;20047;-80
2023/12/24 01:44:33;;;;;;;13.38;1.80;;;9.10;99.90;;;;;;4229420;28;20535;-79
2023/12/24 01:46:34;;;;;;;11.63;1.70;;;9.10;99.90;;;;;;4248039;28;20096;-79
2023/12/24 01:48:36;;;;;;;11.57;1.48;;;9.20;99.90;;;;;;4248223;28;20043;-79
2023/12/24 01:50:38;;;;;;;3.15;1.42;;;9.00;99.90;;;;;;4248147;28;20086;-79
2023/12/24 01:52:39;;;;;;;8.00;1.58;;;9.00;99.90;;;;;;4241615;28;20051;-79
2023/12/24 01:54:40;;;;;;;3.53;0.95;;;9.00;99.90;;;;;;4241360;28;20051;-78
2023/12/24 01:56:41;;;;;;;6.43;1.33;;;9.50;99.90;;;;;;4231000;28;20055;-79
2023/12/24 01:58:42;;;;;;;6.60;1.67;;;9.10;99.90;;;;;;4232158;28;20080;-79
2023/12/24 02:00:43;;;;;;;4.82;1.42;;;8.90;99.90;;;;;;4230296;28;20047;-79
2023/12/24 02:02:47;;;;;;;5.28;1.27;;;8.70;99.90;;;;;;4232351;28;20408;-79
2023/12/24 02:04:48;;;;;;;7.65;1.45;;;9.40;99.90;;;;;;4234554;28;20031;-79
2023/12/24 02:06:50;;;;;;;6.22;1.75;;;8.90;99.90;;;;;;4247836;28;20126;-78
2023/12/24 02:08:51;;;;;;;9.75;1.60;;;8.90;99.90;;;;;;4229468;28;20136;-79
2023/12/24 02:10:52;;;;;;;5.38;1.13;;;8.90;99.90;;;;;;4247927;28;20043;-79
2023/12/24 02:12:53;;;;;;;6.78;1.27;;;8.90;99.90;;;;;;4247958;28;20054;-79
2023/12/24 02:14:54;;;;;;;7.65;1.00;;;9.30;99.90;;;;;;4248090;28;20051;-79
2023/12/24 02:16:58;;;;;;;6.97;1.23;;;8.80;99.90;;;;;;4248070;28;20555;-78
2023/12/24 02:18:59;;;;;;;5.22;1.10;;;8.90;99.90;;;;;;4247797;28;20099;-79
2023/12/24 02:21:04;;;;;;;7.55;1.58;;;9.20;99.90;;;;;;4243182;28;20035;-79
2023/12/24 02:23:05;;;;;;;5.72;1.10;;;8.90;99.90;;;;;;4235488;28;20097;-78
2023/12/24 02:25:06;;;;;;;5.93;1.33;;;9.50;99.90;;;;;;4214290;28;20058;-79
2023/12/24 02:27:49;;;;;;;11.30;1.90;;;8.90;99.90;;;;;;4245669;28;20506;-79
2023/12/24 02:29:53;;;;;;;6.65;1.30;;;8.90;99.90;;;;;;4164083;28;20418;-79
2023/12/24 02:32:02;;;;;;;10.85;1.77;;;9.10;99.90;;;;;;4204777;28;20504;-79
2023/12/24 02:34:04;;;;;;;6.45;1.13;;;9.10;99.90;;;;;;4230611;28;20040;-79
2023/12/24 02:36:08;;;;;;;5.63;1.80;;;8.90;99.90;;;;;;4231319;28;20048;-79
2023/12/24 02:38:09;;;;;;;7.40;1.42;;;8.90;99.90;;;;;;4233707;28;20054;-79
2023/12/24 02:40:10;;;;;;;7.65;1.42;;;8.90;99.90;;;;;;4233823;28;20044;-79
2023/12/24 02:42:11;;;;;;;6.25;1.30;;;8.90;99.90;;;;;;4233419;28;20035;-80
2023/12/24 02:44:12;;;;;;;8.50;1.70;;;9.60;99.90;;;;;;4233433;28;20051;-79
2023/12/24 02:46:13;;;;;;;7.18;1.15;;;9.20;99.90;;;;;;4238306;27;20126;-79
2023/12/24 02:48:13;;;;;;;8.20;2.00;;;9.60;99.90;;;;;;4246451;27;20043;-79
2023/12/24 02:50:18;;;;;;;6.50;1.77;;;8.90;99.90;;;;;;4240731;27;20035;-80
2023/12/24 02:52:18;;;;;;;9.55;1.17;;;8.90;99.90;;;;;;4234979;28;20044;-79
2023/12/24 02:54:19;;;;;;;5.20;1.35;;;9.70;99.90;;;;;;4235384;27;20112;-80
2023/12/24 02:56:20;;;;;;;5.97;1.63;;;9.10;99.90;;;;;;4250151;27;20080;-80
2023/12/24 02:58:20;;;;;;;10.75;2.03;;;8.90;99.90;;;;;;4250099;27;20035;-79
2023/12/24 03:00:21;;;;;;;5.63;1.40;;;8.90;99.90;;;;;;4250038;27;20047;-79
2023/12/24 03:02:22;;;;;;;5.03;1.27;;;9.00;99.90;;;;;;4250383;27;20099;-80
2023/12/24 03:04:22;;;;;;;8.90;1.77;;;9.00;99.90;;;;;;4250115;27;20122;-80
2023/12/24 03:06:23;;;;;;;10.38;1.90;;;9.20;99.90;;;;;;4250471;27;20147;-80
2023/12/24 03:08:24;;;;;;;10.48;1.55;;;9.10;99.90;;;;;;4250407;27;20043;-80
2023/12/24 03:10:24;;;;;;;10.52;1.48;;;9.10;99.90;;;;;;4242070;27;20043;-79
2023/12/24 03:12:27;;;;;;;7.38;1.58;;;9.60;99.90;;;;;;4234886;28;20115;-80
2023/12/24 03:14:28;;;;;;;9.32;1.17;;;9.00;99.90;;;;;;4244243;27;20079;-79
2023/12/24 03:16:29;;;;;;;9.55;1.88;;;9.60;99.90;;;;;;4251792;27;20070;-79
2023/12/24 03:18:30;;;;;;;8.00;1.30;;;9.80;99.90;;;;;;4251618;27;20039;-79
2023/12/24 03:20:30;;;;;;;4.75;1.20;;;10.00;99.90;;;;;;4251271;27;20114;-79
2023/12/24 03:22:31;;;;;;;7.75;1.80;;;9.10;99.90;;;;;;4251075;27;20039;-79
2023/12/24 03:24:32;;;;;;;8.45;1.60;;;9.10;99.90;;;;;;4251639;27;20047;-79
2023/12/24 03:26:32;;;;;;;8.07;1.30;;;9.30;99.90;;;;;;4251604;27;20072;-79
2023/12/24 03:28:33;;;;;;;6.88;1.08;;;9.60;99.90;;;;;;4223526;28;20048;-79
2023/12/24 03:30:34;;;;;;;4.43;1.02;;;10.10;99.90;;;;;;4246651;27;20383;-79
2023/12/24 03:32:34;;;;;;;6.05;0.85;;;9.10;99.90;;;;;;4240062;27;20081;-79
2023/12/24 03:34:35;;;;;;;6.75;1.00;;;9.70;99.90;;;;;;4246099;27;20096;-79
2023/12/24 03:36:36;;;;;;;9.25;1.50;;;9.70;99.90;;;;;;4251401;27;20505;-79
2023/12/24 03:38:37;;;;;;;6.55;1.20;;;9.80;99.90;;;;;;4251387;27;20050;-79
2023/12/24 03:40:37;;;;;;;5.07;1.27;;;9.20;99.90;;;;;;4251079;27;20494;-79
2023/12/24 03:42:38;;;;;;;3.42;0.90;;;9.30;99.90;;;;;;4251443;27;20043;-79
2023/12/24 03:44:39;;;;;;;5.88;1.10;;;9.60;99.90;;;;;;4232840;28;20047;-79
2023/12/24 03:46:40;;;;;;;2.38;0.95;;;9.10;99.90;;;;;;4261423;27;20050;-79
2023/12/24 03:48:41;;;;;;;4.97;0.93;;;9.40;99.90;;;;;;4250853;27;20079;-79
2023/12/24 03:50:43;;;;;;;2.33;0.98;;;9.40;99.90;;;;;;4216534;28;20504;-80
2023/12/24 03:52:43;;;;;;;2.80;0.60;;;9.20;99.90;;;;;;4251251;27;20051;-79
2023/12/24 03:54:44;;;;;;;5.28;0.75;;;9.20;99.90;;;;;;4251129;27;20548;-79
2023/12/24 03:56:45;;;;;;;2.28;0.80;;;9.20;99.90;;;;;;4251306;27;20043;-79
2023/12/24 03:58:46;;;;;;;4.65;0.70;;;9.20;99.90;;;;;;4251517;27;20047;-79
2023/12/24 04:00:47;;;;;;;2.30;0.57;;;9.40;99.90;;;;;;4250618;27;20051;-79
2023/12/24 04:02:48;;;;;;;2.25;0.73;;;9.20;99.90;;;;;;4250413;27;20125;-79
2023/12/24 04:04:49;;;;;;;5.80;0.80;;;9.20;99.90;;;;;;4250522;27;20055;-79
2023/12/24 04:06:51;;;;;;;4.75;1.45;;;9.20;99.90;;;;;;4250290;27;20395;-80
2023/12/24 04:08:52;;;;;;;2.22;0.80;;;9.20;99.90;;;;;;4230468;28;20526;-79
2023/12/24 04:10:53;;;;;;;1.85;0.70;;;9.20;99.90;;;;;;4242251;27;20039;-79
2023/12/24 04:12:54;;;;;;;3.20;0.70;;;9.30;99.90;;;;;;4230626;28;20047;-79
2023/12/24 04:14:55;;;;;;;1.77;0.68;;;9.20;99.90;;;;;;4231803;28;20036;-79
2023/12/24 04:16:56;;;;;;;0.70;0.50;;;9.30;99.90;;;;;;4241898;27;20497;-79
2023/12/24 04:18:56;;;;;;;1.35;1.00;;;9.20;99.90;;;;;;4249120;27;20051;-79
2023/12/24 04:20:57;;;;;;;2.35;1.13;;;9.20;99.90;;;;;;4248644;27;20043;-79
2023/12/24 04:22:57;;;;;;;3.58;0.70;;;9.30;99.90;;;;;;4248624;27;20039;-79
2023/12/24 04:24:58;;;;;;;3.85;0.55;;;9.30;99.90;;;;;;4230672;28;20051;-79
2023/12/24 04:27:01;;;;;;;2.25;0.52;;;9.30;99.90;;;;;;4241992;27;20047;-78
2023/12/24 04:29:01;;;;;;;2.80;0.80;;;9.30;99.90;;;;;;4240174;27;20039;-79
2023/12/24 04:31:02;;;;;;;4.13;0.60;;;9.30;99.90;;;;;;4231846;28;20580;-79
2023/12/24 04:33:03;;;;;;;0.73;0.50;;;9.30;99.90;;;;;;4231518;28;20051;-79
2023/12/24 04:35:05;;;;;;;1.52;0.60;;;9.30;99.90;;;;;;4231408;28;20054;-79
2023/12/24 04:37:07;;;;;;;0.40;0.40;;;9.30;99.90;;;;;;4213874;28;20110;-79
2023/12/24 04:39:08;;;;;;;1.60;0.43;;;9.40;99.90;;;;;;4232233;28;20043;-79
2023/12/24 04:41:18;;;;;;;1.50;0.60;;;9.30;99.90;;;;;;4239250;27;20043;-79
2023/12/24 04:43:18;;;;;;;3.10;0.95;;;9.30;99.90;;;;;;4249310;27;20122;-78
2023/12/24 04:45:19;;;;;;;2.33;0.40;;;9.30;99.90;;;;;;4257625;27;20506;-79
2023/12/24 04:47:21;;;;;;;1.65;0.40;;;9.30;99.90;;;;;;4252622;27;20074;-79
2023/12/24 04:49:21;;;;;;;2.70;0.80;;;9.30;99.90;;;;;;4252166;27;20092;-79
2023/12/24 04:51:22;;;;;;;1.40;0.60;;;9.30;99.90;;;;;;4252453;27;20047;-79
2023/12/24 04:53:23;;;;;;;0.82;0.45;;;9.30;99.90;;;;;;4251782;27;20047;-79
2023/12/24 04:55:24;;;;;;;1.30;0.40;;;9.30;99.90;;;;;;4252889;27;20122;-80
2023/12/24 04:57:26;;;;;;;4.47;0.93;;;9.30;99.90;;;;;;4251046;27;20123;-79
2023/12/24 04:59:27;;;;;;;1.00;0.50;;;9.40;99.90;;;;;;4248602;27;20513;-79
2023/12/24 05:01:28;;;;;;;0.50;0.43;;;9.40;99.90;;;;;;4248850;27;20043;-79
2023/12/24 05:03:28;;;;;;;4.47;0.68;;;9.30;99.90;;;;;;4248638;27;20050;-80
2023/12/24 05:05:29;;;;;;;1.58;0.60;;;9.30;99.90;;;;;;4248908;27;20054;-80
2023/12/24 05:07:31;;;;;;;0.93;0.60;;;9.50;99.90;;;;;;4248879;27;20050;-80
2023/12/24 05:09:32;;;;;;;3.15;0.65;;;9.40;99.90;;;;;;4248986;27;20035;-80
2023/12/24 05:11:32;;;;;;;3.90;0.63;;;9.80;99.90;;;;;;4249046;27;20600;-80
2023/12/24 05:13:37;;;;;;;1.73;0.50;;;10.00;99.90;;;;;;4249077;27;20045;-80
2023/12/24 05:15:37;;;;;;;5.75;0.60;;;9.50;99.90;;;;;;4248218;27;20059;-80
2023/12/24 05:17:38;;;;;;;3.58;0.90;;;9.70;99.90;;;;;;4243819;27;20040;-80
2023/12/24 05:19:39;;;;;;;3.35;0.82;;;9.50;99.90;;;;;;4243648;27;20494;-80
2023/12/24 05:21:40;;;;;;;4.70;0.85;;;9.80;99.90;;;;;;4238291;28;20394;-81
2023/12/24 05:23:41;;;;;;;5.07;1.23;;;9.60;99.90;;;;;;4248951;27;20127;-79
2023/12/24 05:25:41;;;;;;;5.38;0.93;;;9.50;99.90;;;;;;4248457;28;20035;-80
2023/12/24 05:27:42;;;;;;;8.55;1.17;;;9.50;99.90;;;;;;4248813;27;20394;-79
2023/12/24 05:29:43;;;;;;;4.22;1.10;;;9.70;99.90;;;;;;4248247;28;20043;-79
2023/12/24 05:31:44;;;;;;;3.85;1.38;;;9.50;99.90;;;;;;4247633;28;20035;-79
2023/12/24 05:33:45;;;;;;;4.53;1.30;;;9.60;99.90;;;;;;4238174;28;20392;-79
2023/12/24 05:35:45;;;;;;;5.13;1.23;;;9.50;99.90;;;;;;4248260;28;20047;-79
2023/12/24 05:37:46;;;;;;;5.40;1.17;;;9.50;99.90;;;;;;4248383;28;20043;-80
2023/12/24 05:39:47;;;;;;;5.30;0.80;;;9.60;99.90;;;;;;4247796;28;20047;-80
2023/12/24 05:41:48;;;;;;;9.90;1.73;;;9.60;99.90;;;;;;4247836;28;20485;-80
2023/12/24 05:43:49;;;;;;;5.35;1.35;;;9.60;99.90;;;;;;4247937;28;20100;-80
2023/12/24 05:45:54;;;;;;;6.25;1.40;;;9.70;99.90;;;;;;4248005;28;20388;-80
2023/12/24 05:47:57;;;;;;;7.88;1.58;;;9.90;99.90;;;;;;4248202;28;20043;-80
2023/12/24 05:49:57;;;;;;;7.10;1.33;;;9.60;99.90;;;;;;4246473;28;20547;-79
2023/12/24 05:51:58;;;;;;;10.15;2.08;;;9.60;99.90;;;;;;4239214;28;20118;-79
2023/12/24 05:53:59;;;;;;;5.00;1.17;;;9.70;99.90;;;;;;4252705;27;20042;-79
2023/12/24 05:56:00;;;;;;;10.68;1.48;;;9.70;99.90;;;;;;4247720;28;20122;-79
2023/12/24 05:58:01;;;;;;;9.32;2.10;;;9.70;99.90;;;;;;4248396;28;20414;-79
2023/12/24 06:00:03;;;;;;;9.15;1.40;;;9.70;99.90;;;;;;4230672;28;20044;-79
2023/12/24 06:02:04;;;;;;;15.25;1.88;;;9.70;99.90;;;;;;4226741;28;20083;-79
2023/12/24 06:04:05;;;;;;;9.27;1.50;;;9.70;99.90;;;;;;4230422;28;20056;-79
2023/12/24 06:06:06;;;;;;;9.60;1.83;;;9.70;99.90;;;;;;4248358;28;20200;-79
2023/12/24 06:08:07;;;;;;;8.38;1.73;;;9.70;99.90;;;;;;4247906;28;20039;-79
2023/12/24 06:10:08;;;;;;;14.65;2.25;;;9.70;99.90;;;;;;4249073;27;20406;-79
2023/12/24 06:12:09;;;;;;;10.68;1.52;;;;;;;;;;4245378;27;20050;-79
2023/12/24 06:14:10;;;;;;;14.15;1.90;;;9.70;99.90;;;;;;4251502;27;20491;-79
2023/12/24 06:16:12;;;;;;;10.30;1.90;;;9.80;99.90;;;;;;4251180;27;20043;-79
2023/12/24 06:18:13;;;;;;;12.75;2.15;;;9.80;99.90;;;;;;4249192;27;20039;-79
2023/12/24 06:20:14;;;;;;;17.42;1.95;;;9.80;99.90;;;;;;4248255;27;20066;-79
2023/12/24 06:22:14;;;;;;;17.05;1.73;;;9.80;99.90;;;;;;4252258;27;20043;-79
2023/12/24 06:24:20;;;;;;;6.50;1.33;;;9.80;99.90;;;;;;4251242;27;20394;-79
2023/12/24 06:26:21;;;;;;;13.93;2.10;;;9.80;99.90;;;;;;4232472;28;20075;-79
2023/12/24 06:28:22;;;;;;;13.73;1.92;;;9.80;99.90;;;;;;4250657;27;20449;-80
2023/12/24 06:30:23;;;;;;;8.20;1.90;;;9.80;99.90;;;;;;4250732;27;20092;-79
2023/12/24 06:32:24;;;;;;;10.63;2.25;;;9.80;99.90;;;;;;4250649;27;20043;-80
2023/12/24 06:34:25;;;;;;;15.05;2.83;;;9.80;99.90;;;;;;4232987;28;20047;-80
2023/12/24 06:36:26;;;;;;;9.60;1.92;;;9.80;99.90;;;;;;4250712;27;20180;-80
2023/12/24 06:38:26;;;;;;;6.50;1.52;;;9.90;99.90;;;;;;4248306;27;20111;-80
2023/12/24 06:40:27;;;;;;;9.90;1.50;;;9.80;99.90;;;;;;4231120;28;20107;-80
2023/12/24 06:42:28;;;;;;;12.75;2.55;;;9.80;99.90;;;;;;4250627;27;20071;-80
2023/12/24 06:44:28;;;;;;;9.38;2.22;;;9.80;99.90;;;;;;4250387;27;20054;-79
2023/12/24 06:46:29;;;;;;;15.27;2.97;;;9.90;99.90;;;;;;4250472;27;20035;-79
2023/12/24 06:48:30;;;;;;;6.43;1.42;;;9.80;99.90;;;;;;4235434;27;20044;-79
2023/12/24 06:50:31;;;;;;;5.30;1.27;;;9.90;99.90;;;;;;4243951;27;20054;-79
2023/12/24 06:52:33;;;;;;;11.73;2.03;;;9.90;99.90;;;;;;4254289;27;20103;-79
2023/12/24 06:54:34;;;;;;;9.18;1.58;;;9.90;99.90;;;;;;4262949;27;20076;-79
2023/12/24 06:56:34;;;;;;;7.28;1.48;;;9.90;99.90;;;;;;4263798;27;20065;-80
2023/12/24 06:58:35;;;;;;;6.28;1.88;;;9.90;99.90;;;;;;4245688;27;20039;-80
2023/12/24 07:00:36;;;;;;;6.38;2.42;;;9.90;99.90;;;;;;4244058;27;20120;-80
2023/12/24 07:02:37;;;;;;;9.45;1.70;;;9.90;99.90;;;;;;4219951;27;20044;-80
2023/12/24 07:04:38;;;;;;;9.82;1.35;;;9.90;99.90;;;;;;4249215;27;20043;-80
2023/12/24 07:06:38;;;;;;;4.35;1.30;;;10.00;99.90;;;;;;4250821;27;20034;-80
2023/12/24 07:08:40;;;;;;;14.40;1.67;;;9.90;99.90;;;;;;4251014;27;20475;-80
2023/12/24 07:10:41;;;;;;;7.22;1.45;;;10.00;99.90;;;;;;4232247;28;20560;-80
2023/12/24 07:12:41;;;;;;;6.57;1.20;;;10.00;99.90;;;;;;4250084;27;20045;-79
2023/12/24 07:14:42;;;;;;;3.28;1.27;;;10.00;99.90;;;;;;4249891;27;20046;-79
2023/12/24 07:16:43;;;;;;;4.55;1.35;;;10.00;99.90;;;;;;4245154;27;20036;-79
2023/12/24 07:18:44;;;;;;;11.82;1.60;;;10.00;99.90;;;;;;4224535;28;20048;-79
2023/12/24 07:20:45;;;;;;;10.07;1.45;;;10.00;99.90;;;;;;4233837;28;20079;-79
2023/12/24 07:22:46;;;;;;;9.98;1.50;;;10.10;99.90;;;;;;4223511;28;20054;-79
2023/12/24 07:24:46;;;;;;;7.07;1.75;;;10.10;99.90;;;;;;4250056;27;20100;-79
2023/12/24 07:26:47;;;;;;;6.22;1.23;;;10.10;99.90;;;;;;4250086;27;20043;-79
2023/12/24 07:28:48;;;;;;;7.65;2.03;;;10.10;99.90;;;;;;4214837;28;20057;-79
2023/12/24 07:30:49;;;;;;;8.48;1.40;;;10.10;99.90;;;;;;4250412;27;20398;-80
2023/12/24 07:32:50;;;;;;;8.48;1.20;;;10.10;99.90;;;;;;4248032;27;20047;-80
2023/12/24 07:34:52;;;;;;;12.20;1.85;;;10.10;99.90;;;;;;4241850;27;20031;-81
2023/12/24 07:36:53;;;;;;;17.48;2.30;;;10.20;99.90;;;;;;4267129;27;20050;-80
2023/12/24 07:38:54;;;;;;;5.50;1.55;;;10.20;99.90;;;;;;4252068;27;20050;-81
2023/12/24 07:40:56;;;;;;;11.65;1.88;;;10.20;99.90;;;;;;4251290;27;20091;-80
2023/12/24 07:42:59;;;;;;;11.93;1.40;;;10.20;99.90;;;;;;4253221;27;20100;-81
2023/12/24 07:44:59;;;;;;;11.63;1.60;;;10.20;99.90;;;;;;4263435;27;20122;-81
2023/12/24 07:47:00;;;;;;;12.57;1.77;;;10.20;99.90;;;;;;4257329;27;20487;-80
2023/12/24 07:49:02;;;;;;;11.50;1.90;;;10.20;99.90;;;;;;4255573;27;20094;-81
2023/12/24 07:51:03;;;;;;;11.32;1.80;;;10.20;99.90;;;;;;4254305;27;20533;-79
2023/12/24 07:53:04;;;;;;;7.53;2.15;;;10.20;99.90;;;;;;4250791;27;20074;-80
2023/12/24 07:55:05;;;;;;;6.05;1.23;;;10.20;99.90;;;;;;4240569;27;20506;-80
2023/12/24 07:57:12;;;;;;;7.57;1.90;;;10.30;99.90;;;;;;4235954;28;20044;-79
2023/12/24 07:59:13;;;;;;;10.65;1.73;;;10.30;99.90;;;;;;4233820;28;20824;-79
2023/12/24 08:01:14;;;;;;;11.40;2.08;;;10.30;99.90;;;;;;4249655;27;20039;-78
2023/12/24 08:03:14;;;;;;;6.95;1.15;;;10.30;99.90;;;;;;4252638;27;20047;-79
2023/12/24 08:05:21;;;;;;;11.85;1.63;;;10.30;99.90;;;;;;4246464;28;20078;-78
2023/12/24 08:07:23;;;;;;;4.80;1.40;;;10.30;99.90;;;;;;4254762;27;20071;-78
2023/12/24 08:09:26;;;;;;;7.18;1.45;;;10.30;99.90;;;;;;4245883;28;20062;-79
2023/12/24 08:11:26;;;;;;;8.77;1.38;;;10.30;99.90;;;;;;4264038;27;20027;-78
2023/12/24 08:13:28;;;;;;;7.13;1.55;;;10.20;99.90;;;;;;4264522;27;20050;-79
2023/12/24 08:15:36;;;;;;;9.15;1.48;;;10.30;99.90;;;;;;4263574;27;20071;-79
2023/12/24 08:17:44;;;;;;;12.82;1.85;;;10.30;99.90;;;;;;4263769;27;20395;-78
2023/12/24 08:19:49;;;;;;;9.50;1.60;;;10.30;99.90;;;;;;4258982;27;20067;-79
2023/12/24 08:21:50;;;;;;;9.52;1.85;;;10.30;99.90;;;;;;4248778;27;20040;-79
2023/12/24 08:23:51;;;;;;;9.82;2.35;;;10.30;99.90;;;;;;4239900;28;20046;-79
2023/12/24 08:25:51;;;;;;;11.88;1.50;;;10.30;99.90;;;;;;4234613;28;20044;-79
2023/12/24 08:27:52;;;;;;;5.75;1.70;;;10.30;99.90;;;;;;4233820;28;20040;-79
2023/12/24 08:29:53;;;;;;;14.00;2.33;;;10.30;99.90;;;;;;4243283;27;20080;-79
2023/12/24 08:31:55;;;;;;;5.55;1.83;;;10.30;99.90;;;;;;4250629;27;20447;-80
2023/12/24 08:33:57;;;;;;;6.68;1.65;;;10.40;99.90;;;;;;4246171;27;20047;-79
2023/12/24 08:35:57;;;;;;;7.43;2.33;;;10.30;99.90;;;;;;4245439;27;20464;-80
2023/12/24 08:37:58;;;;;;;8.95;1.63;;;10.30;99.90;;;;;;4238363;27;20161;-80
2023/12/24 08:39:59;;;;;;;11.20;1.58;;;10.30;99.90;;;;;;4249493;27;20467;-80
2023/12/24 08:42:00;;;;;;;11.70;1.65;;;10.30;99.90;;;;;;4249371;27;20122;-80
2023/12/24 08:44:02;;;;;;;11.85;2.20;;;10.30;99.90;;;;;;4250137;27;20571;-79
2023/12/24 08:46:03;;;;;;;15.15;1.70;;;10.30;99.90;;;;;;4249623;27;20043;-80
2023/12/24 08:48:04;;;;;;;18.85;2.05;;;10.30;99.90;;;;;;4249381;27;20057;-80
2023/12/24 08:50:05;;;;;;;10.50;2.38;;;10.40;99.90;;;;;;4250512;27;20441;-79
2023/12/24 08:52:06;;;;;;;10.82;1.80;;;10.40;99.90;;;;;;4244026;27;20112;-79
2023/12/24 08:54:06;;;;;;;16.48;2.80;;;10.40;99.90;;;;;;4241569;27;20478;-80
2023/12/24 08:56:07;;;;;;;15.55;2.47;;;10.40;99.90;;;;;;4248457;27;20122;-79
2023/12/24 08:58:08;;;;;;;7.43;2.05;;;10.40;99.90;;;;;;4238548;27;20050;-80
2023/12/24 09:00:11;;;;;;;15.73;2.25;;;10.40;99.90;;;;;;4250375;27;20062;-79
2023/12/24 09:02:13;;;;;;;15.35;1.90;;;10.40;99.90;;;;;;4250904;27;20039;-79
2023/12/24 09:04:14;;;;;;;21.50;2.10;;;;;;;;;;4250628;27;20074;-79
2023/12/24 09:06:15;;;;;;;9.70;1.83;;;;;;;;;;4250439;27;20487;-79
2023/12/24 09:08:16;;;;;;;12.27;1.52;;;;;;;;;;4249780;27;20494;-80
2023/12/24 09:10:17;;;;;;;8.18;2.80;;;;;;;;;;4249291;27;20066;-79
2023/12/24 09:12:19;;;;;;;15.88;2.15;;;;;;;;;;4230953;28;20067;-80
2023/12/24 09:14:20;;;;;;;12.85;2.03;;;;;;;;;;4249277;27;20507;-79
2023/12/24 09:16:22;;;;;;;16.08;1.85;;;;;;;;;;4249835;27;20480;-79
2023/12/24 09:18:24;;;;;;;10.73;2.08;;;;;;;;;;4249634;27;20051;-79
2023/12/24 09:20:25;;;;;;;17.08;3.08;;;;;;;;;;4246566;27;20054;-79
2023/12/24 09:22:26;;;;;;;13.57;1.80;;;;;;;;;;4248324;27;20070;-80
2023/12/24 09:24:27;;;;;;;14.40;2.85;;;;;;;;;;4245573;28;20482;-79
2023/12/24 09:26:28;;;;;;;13.68;3.47;;;;;;;;;;4247013;28;20388;-79
2023/12/24 09:28:29;;;;;;;9.85;2.72;;;;;;;;;;4247908;28;20039;-79
2023/12/24 09:30:31;;;;;;;11.55;2.08;;;;;;;;;;4248352;28;20039;-79
2023/12/24 09:32:33;;;;;;;19.45;1.95;;;;;;;;;;4248020;28;20090;-79
2023/12/24 09:34:34;;;;;;;10.55;2.03;;;;;;;;;;4229437;28;20047;-79
2023/12/24 09:36:35;;;;;;;16.25;2.22;;;;;;;;;;4210357;28;20056;-79
2023/12/24 09:38:36;;;;;;;13.85;2.28;;;;;;;;;;4230834;28;20399;-79
2023/12/24 09:40:37;;;;;;;13.95;1.70;;;;;;;;;;4230789;28;20130;-79
2023/12/24 09:42:38;;;;;;;8.63;1.23;;;10.40;99.90;;;;;;4232476;28;20042;-79
2023/12/24 09:44:39;;;;;;;13.60;2.08;;;10.70;99.90;;;;;;4239655;27;20044;-80
2023/12/24 09:46:40;;;;;;;14.75;3.17;;;10.70;99.90;;;;;;4244542;27;20066;-81
2023/12/24 09:48:41;;;;;;;8.02;2.28;;;10.70;99.90;;;;;;4235642;28;20056;-81
2023/12/24 09:50:42;;;;;;;8.75;1.38;;;10.80;99.90;;;;;;4236520;28;20071;-81
2023/12/24 09:52:45;;;;;;;14.30;1.45;;;10.80;99.90;;;;;;4236433;28;20047;-80
2023/12/24 09:54:46;;;;;;;13.40;1.38;;;10.80;99.90;;;;;;4242322;27;20102;-80
2023/12/24 09:56:47;;;;;;;12.75;2.20;;;10.80;99.90;;;;;;4235707;28;20050;-80
2023/12/24 09:58:48;;;;;;;17.52;3.13;;;10.80;99.90;;;;;;4234658;28;20043;-80
2023/12/24 10:00:49;;;;;;;12.15;2.35;;;10.90;99.90;;;;;;4233656;28;20093;-80
2023/12/24 10:02:50;;;;;;;4.95;1.60;;;10.90;99.90;;;;;;4234226;28;20100;-80
2023/12/24 10:04:50;;;;;;;9.57;1.70;;;10.90;99.90;;;;;;4234213;28;20063;-79
2023/12/24 10:06:55;;;;;;;10.15;1.33;;;10.90;99.90;;;;;;4234283;28;20092;-79
2023/12/24 10:08:56;;;;;;;4.97;1.38;;;10.90;99.90;;;;;;4234349;28;20091;-80
2023/12/24 10:10:58;;;;;;;8.40;1.70;;;;;;;;;;4233736;28;20042;-80
2023/12/24 10:13:06;;;;;;;11.13;1.58;;;;;;;;;;4234166;28;20075;-79
2023/12/24 10:15:07;;;;;;;15.45;1.27;;;;;;;;;;4240701;27;20051;-80
2023/12/24 10:17:08;;;;;;;11.30;1.92;;;;;;;;;;4246287;27;20047;-79
2023/12/24 10:19:09;;;;;;;12.88;1.52;;;;;;;;;;4248783;27;20070;-78
2023/12/24 10:21:11;;;;;;;16.05;2.58;;;;;;;;;;4246514;27;20042;-78
2023/12/24 10:23:12;;;;;;;12.20;1.77;;;;;;;;;;4241869;27;20043;-78
2023/12/24 10:25:16;;;;;;;9.50;1.50;;;;;;;;;;4250497;27;20039;-78
2023/12/24 10:27:17;;;;;;;10.07;1.52;;;;;;;;;;4250134;27;20043;-78
2023/12/24 10:29:22;;;;;;;10.70;1.75;;;;;;;;;;4250159;27;20525;-78
2023/12/24 10:31:24;;;;;;;6.80;1.17;;;;;;;;;;4249806;27;20039;-78
2023/12/24 10:33:25;;;;;;;7.88;1.15;;;;;;;;;;4247359;27;20176;-78
2023/12/24 10:35:26;;;;;;;11.98;1.33;;;;;;;;;;4247741;27;20116;-79
2023/12/24 10:37:29;;;;;;;8.48;1.58;;;;;;;;;;4245536;27;20035;-78
2023/12/24 10:39:30;;;;;;;16.48;2.25;;;;;;;;;;4250384;27;20039;-78
2023/12/24 10:41:31;;;;;;;12.57;1.73;;;;;;;;;;4250831;27;20181;-78
2023/12/24 10:43:32;;;;;;;10.73;2.45;;;10.90;99.90;;;;;;4250689;27;20039;-78
2023/12/24 10:45:33;;;;;;;6.60;1.13;;;11.20;99.90;;;;;;4250565;27;20047;-80